createdAt,value
2018-12-05T00:00:46.795Z,17.80
2018-12-05T00:02:48.750Z,22.57
2018-12-05T00:04:50.702Z,24.33
2018-12-05T00:06:52.662Z,12.43
2018-12-05T00:08:54.626Z,15.87
2018-12-05T00:10:56.575Z,12.93
2018-12-05T00:12:58.571Z,31.60
2018-12-05T00:15:00.541Z,21.87
2018-12-05T00:17:02.513Z,28.33
2018-12-05T00:19:04.463Z,33.87
2018-12-05T00:21:06.409Z,23.53
2018-12-05T00:23:08.367Z,12.30
2018-12-05T00:25:10.318Z,13.93
2018-12-05T00:27:12.267Z,17.00
2018-12-05T00:29:14.223Z,18.43
2018-12-05T00:31:16.174Z,12.73
2018-12-05T00:33:18.263Z,11.57
2018-12-05T00:35:20.206Z,18.03
2018-12-05T00:37:22.183Z,24.33
2018-12-05T00:39:24.127Z,25.63
2018-12-05T00:41:26.070Z,11.23
2018-12-05T00:43:28.031Z,21.50
2018-12-05T00:45:29.985Z,12.27
2018-12-05T00:47:31.966Z,21.83
2018-12-05T00:49:33.916Z,27.17
2018-12-05T00:51:35.866Z,25.87
2018-12-05T00:53:37.823Z,19.17
2018-12-05T00:55:39.792Z,20.43
2018-12-05T00:57:41.755Z,17.43
2018-12-05T00:59:43.711Z,20.17
2018-12-05T01:01:45.662Z,19.93
2018-12-05T01:03:47.631Z,10.63
2018-12-05T01:05:49.580Z,10.23
2018-12-05T01:07:51.535Z,14.47
2018-12-05T01:09:53.495Z,19.03
2018-12-05T01:11:55.451Z,29.20
2018-12-05T01:13:57.414Z,19.80
2018-12-05T01:15:59.370Z,11.30
2018-12-05T01:18:01.327Z,11.53
2018-12-05T01:20:03.623Z,12.47
2018-12-05T01:22:05.576Z,24.23
2018-12-05T01:24:07.547Z,20.63
2018-12-05T01:26:09.503Z,16.20
2018-12-05T01:28:11.451Z,12.80
2018-12-05T01:30:13.403Z,17.23
2018-12-05T01:32:15.352Z,12.37
2018-12-05T01:34:17.310Z,12.23
2018-12-05T01:36:19.262Z,17.60
2018-12-05T01:38:21.215Z,13.20
2018-12-05T01:40:23.191Z,16.30
2018-12-05T01:42:25.198Z,17.37
2018-12-05T01:44:27.151Z,11.57
2018-12-05T01:46:29.099Z,12.87
2018-12-05T01:48:31.077Z,15.07
2018-12-05T01:52:41.855Z,16.27
2018-12-05T01:54:43.823Z,22.37
2018-12-05T01:56:45.787Z,13.90
2018-12-05T01:58:47.744Z,14.23
2018-12-05T02:00:49.699Z,12.03
2018-12-05T02:02:51.659Z,13.13
2018-12-05T02:04:53.618Z,13.23
2018-12-05T02:06:55.575Z,14.63
2018-12-05T02:08:57.523Z,26.70
2018-12-05T02:10:59.516Z,12.70
2018-12-05T02:13:01.523Z,13.30
2018-12-05T02:15:03.964Z,29.87
2018-12-05T02:17:05.939Z,19.25
2018-12-05T02:19:07.899Z,13.70
2018-12-05T02:21:09.860Z,22.33
2018-12-05T02:23:11.827Z,12.37
2018-12-05T02:25:13.779Z,17.37
2018-12-05T02:27:15.725Z,29.90
2018-12-05T02:29:17.679Z,30.00
2018-12-05T02:31:20.032Z,13.70
2018-12-05T02:33:21.991Z,21.70
2018-12-05T02:35:23.954Z,13.65
2018-12-05T02:37:25.919Z,15.20
2018-12-05T02:39:27.975Z,19.17
2018-12-05T02:41:29.939Z,18.40
2018-12-05T02:43:31.899Z,13.20
2018-12-05T02:45:33.923Z,16.70
2018-12-05T02:47:35.983Z,14.67
2018-12-05T02:49:37.947Z,14.68
2018-12-05T02:51:39.931Z,15.80
2018-12-05T02:53:41.891Z,19.42
2018-12-05T02:55:43.875Z,15.53
2018-12-05T02:57:45.827Z,13.85
2018-12-05T02:59:47.788Z,15.93
2018-12-05T03:01:49.750Z,13.38
2018-12-05T03:03:51.756Z,20.88
2018-12-05T03:05:53.866Z,11.65
2018-12-05T03:07:55.819Z,20.92
2018-12-05T03:09:57.775Z,15.83
2018-12-05T03:11:59.740Z,13.40
2018-12-05T03:14:01.699Z,19.37
2018-12-05T03:16:03.663Z,11.55
2018-12-05T03:18:05.732Z,18.75
2018-12-05T03:20:07.682Z,17.15
2018-12-05T03:22:09.632Z,24.02
2018-12-05T03:24:11.603Z,10.58
2018-12-05T03:26:20.221Z,18.55
2018-12-05T03:28:22.167Z,19.98
2018-12-05T03:30:24.130Z,17.42
2018-12-05T03:32:26.200Z,9.75
2018-12-05T03:34:28.143Z,13.78
2018-12-05T03:36:30.104Z,10.88
2018-12-05T03:38:32.068Z,13.65
2018-12-05T03:40:34.030Z,13.40
2018-12-05T03:42:36.095Z,8.43
2018-12-05T03:44:38.044Z,17.15
2018-12-05T03:46:40.112Z,19.42
2018-12-05T03:48:42.167Z,13.55
2018-12-05T03:50:44.130Z,17.62
2018-12-05T03:52:46.095Z,14.55
2018-12-05T03:54:48.080Z,10.00
2018-12-05T03:56:50.054Z,23.02
2018-12-05T03:58:52.107Z,14.43
2018-12-05T04:00:54.056Z,13.08
2018-12-05T04:02:56.494Z,16.25
2018-12-05T04:04:58.551Z,16.05
2018-12-05T04:07:00.498Z,22.07
2018-12-05T04:09:04.327Z,15.60
2018-12-05T04:11:06.267Z,12.10
2018-12-05T04:13:08.227Z,18.12
2018-12-05T04:15:10.304Z,18.52
2018-12-05T04:17:12.276Z,15.38
2018-12-05T04:19:14.327Z,19.30
2018-12-05T04:21:16.287Z,16.40
2018-12-05T04:23:25.416Z,17.82
2018-12-05T04:25:27.587Z,16.57
2018-12-05T04:27:29.548Z,13.32
2018-12-05T04:29:31.607Z,15.68
2018-12-05T04:31:33.559Z,16.87
2018-12-05T04:33:35.523Z,14.03
2018-12-05T04:35:37.468Z,21.20
2018-12-05T04:37:39.535Z,18.73
2018-12-05T04:39:41.495Z,25.17
2018-12-05T04:41:43.467Z,17.92
2018-12-05T04:43:45.519Z,20.30
2018-12-05T04:45:47.471Z,25.10
2018-12-05T04:47:49.441Z,11.85
2018-12-05T04:49:51.399Z,17.52
2018-12-05T04:51:53.356Z,18.23
2018-12-05T04:53:55.319Z,23.35
2018-12-05T04:55:57.275Z,16.80
2018-12-05T04:57:59.226Z,17.10
2018-12-05T05:00:01.213Z,13.45
2018-12-05T05:02:03.327Z,14.05
2018-12-05T05:04:05.627Z,13.50
2018-12-05T05:06:08.744Z,20.55
2018-12-05T05:08:11.697Z,13.20
2018-12-05T05:10:15.691Z,17.30
2018-12-05T05:12:17.626Z,19.15
2018-12-05T05:14:19.592Z,19.42
2018-12-05T05:16:21.555Z,18.82
2018-12-05T05:18:23.526Z,23.32
2018-12-05T05:20:25.484Z,15.80
2018-12-05T05:22:27.434Z,16.77
2018-12-05T05:24:29.399Z,23.77
2018-12-05T05:26:31.351Z,23.62
2018-12-05T05:28:33.299Z,23.70
2018-12-05T05:30:35.283Z,21.15
2018-12-05T05:32:37.247Z,21.12
2018-12-05T05:34:39.211Z,32.90
2018-12-05T05:36:41.163Z,24.37
2018-12-05T05:38:43.131Z,23.98
2018-12-05T05:40:45.087Z,18.70
2018-12-05T05:42:47.034Z,32.48
2018-12-05T05:44:49.022Z,24.00
2018-12-05T05:46:50.979Z,20.02
2018-12-05T05:48:52.935Z,21.20
2018-12-05T05:50:54.888Z,29.30
2018-12-05T05:52:56.843Z,21.97
2018-12-05T05:54:58.799Z,21.97
2018-12-05T05:57:00.762Z,15.30
2018-12-05T05:59:02.723Z,22.55
2018-12-05T06:01:04.715Z,16.97
2018-12-05T06:03:06.678Z,23.20
2018-12-05T06:05:08.634Z,17.85
2018-12-05T06:07:10.587Z,22.62
2018-12-05T06:09:12.548Z,21.15
2018-12-05T06:11:14.494Z,30.08
2018-12-05T06:13:16.439Z,21.70
2018-12-05T06:15:18.395Z,15.50
2018-12-05T06:17:20.401Z,21.15
2018-12-05T06:19:22.370Z,17.15
2018-12-05T06:21:24.326Z,20.88
2018-12-05T06:23:26.274Z,30.40
2018-12-05T06:25:28.240Z,20.30
2018-12-05T06:27:30.302Z,27.22
2018-12-05T06:29:32.372Z,31.77
2018-12-05T06:31:34.335Z,24.65
2018-12-05T06:33:36.724Z,26.77
2018-12-05T06:35:39.096Z,24.05
2018-12-05T06:37:41.047Z,21.77
2018-12-05T06:39:43.007Z,38.45
2018-12-05T06:41:44.983Z,31.12
2018-12-05T06:43:46.966Z,39.15
2018-12-05T06:45:48.909Z,30.97
2018-12-05T06:47:50.863Z,34.85
2018-12-05T06:49:52.816Z,51.35
2018-12-05T06:51:54.767Z,38.60
2018-12-05T06:53:56.747Z,45.25
2018-12-05T06:55:58.699Z,51.58
2018-12-05T06:58:00.651Z,39.88
2018-12-05T07:00:02.675Z,32.42
2018-12-05T07:02:04.793Z,41.02
2018-12-05T07:04:06.755Z,40.70
2018-12-05T07:06:08.715Z,37.03
2018-12-05T07:08:10.681Z,30.75
2018-12-05T07:10:12.643Z,34.45
2018-12-05T07:12:14.602Z,31.07
2018-12-05T07:14:16.571Z,42.15
2018-12-05T07:16:18.551Z,30.08
2018-12-05T07:18:20.507Z,37.45
2018-12-05T07:20:22.480Z,32.67
2018-12-05T07:22:24.436Z,40.05
2018-12-05T07:24:26.403Z,45.15
2018-12-05T07:26:28.363Z,31.10
2018-12-05T07:28:30.323Z,43.87
2018-12-05T07:30:39.275Z,37.20
2018-12-05T07:32:41.239Z,34.20
2018-12-05T07:34:43.207Z,39.08
2018-12-05T07:36:45.167Z,39.15
2018-12-05T07:38:47.123Z,35.35
2018-12-05T07:40:49.079Z,42.27
2018-12-05T07:42:51.043Z,38.67
2018-12-05T07:44:53.007Z,38.45
2018-12-05T07:46:54.971Z,37.93
2018-12-05T07:48:56.931Z,61.50
2018-12-05T07:50:58.902Z,33.95
2018-12-05T07:53:00.867Z,34.30
2018-12-05T07:55:02.843Z,32.53
2018-12-05T07:57:04.895Z,43.40
2018-12-05T07:59:06.851Z,37.50
2018-12-05T08:01:08.823Z,34.27
2018-12-05T08:03:10.784Z,42.15
2018-12-05T08:05:12.735Z,55.03
2018-12-05T08:07:14.707Z,50.78
2018-12-05T08:09:16.659Z,45.95
2018-12-05T08:11:18.611Z,43.52
2018-12-05T08:13:20.568Z,46.05
2018-12-05T08:15:22.663Z,60.73
2018-12-05T08:17:24.623Z,60.25
2018-12-05T08:19:26.590Z,74.92
2018-12-05T08:21:28.711Z,61.70
2018-12-05T08:23:30.659Z,74.85
2018-12-05T08:25:32.731Z,65.13
2018-12-05T08:27:34.687Z,41.43
2018-12-05T08:29:36.647Z,37.78
2018-12-05T08:31:38.602Z,44.60
2018-12-05T08:33:40.604Z,30.30
2018-12-05T08:35:42.568Z,37.98
2018-12-05T08:37:44.523Z,29.23
2018-12-05T08:39:46.580Z,33.35
2018-12-05T08:41:48.543Z,30.35
2018-12-05T08:43:50.487Z,39.80
2018-12-05T08:45:52.523Z,32.23
2018-12-05T08:47:54.554Z,35.60
2018-12-05T08:49:56.536Z,44.47
2018-12-05T08:51:58.607Z,29.52
2018-12-05T08:54:00.555Z,46.03
2018-12-05T08:56:02.519Z,50.03
2018-12-05T08:58:04.472Z,44.83
2018-12-05T09:00:07.251Z,37.57
2018-12-05T09:02:09.271Z,44.00
2018-12-05T09:04:11.222Z,33.50
2018-12-05T09:06:13.191Z,29.70
2018-12-05T09:08:15.139Z,29.97
2018-12-05T09:10:17.091Z,33.37
2018-12-05T09:12:19.055Z,29.40
2018-12-05T09:14:21.005Z,27.43
2018-12-05T09:16:23.058Z,28.67
2018-12-05T09:18:25.023Z,25.97
2018-12-05T09:20:26.975Z,24.07
2018-12-05T09:22:28.931Z,22.90
2018-12-05T09:24:30.879Z,29.30
2018-12-05T09:26:32.826Z,25.80
2018-12-05T09:28:34.793Z,31.27
2018-12-05T09:30:36.742Z,20.73
2018-12-05T09:32:38.711Z,20.70
2018-12-05T09:34:40.758Z,23.57
2018-12-05T09:36:42.716Z,27.33
2018-12-05T09:38:44.673Z,21.33
2018-12-05T09:40:46.723Z,27.77
2018-12-05T09:42:48.701Z,27.20
2018-12-05T09:44:50.758Z,17.63
2018-12-05T09:46:52.715Z,25.93
2018-12-05T09:48:54.667Z,19.70
2018-12-05T09:50:56.619Z,26.30
2018-12-05T09:52:58.566Z,24.13
2018-12-05T09:55:00.515Z,18.97
2018-12-05T09:57:02.482Z,26.13
2018-12-05T09:59:04.431Z,23.97
2018-12-05T10:01:06.383Z,22.70
2018-12-05T10:03:08.337Z,23.73
2018-12-05T10:05:10.284Z,25.50
2018-12-05T10:07:12.255Z,25.37
2018-12-05T10:09:14.203Z,29.23
2018-12-05T10:11:16.151Z,25.50
2018-12-05T10:13:18.103Z,19.33
2018-12-05T10:15:20.051Z,29.20
2018-12-05T10:17:22.031Z,19.93
2018-12-05T10:19:24.087Z,19.73
2018-12-05T10:21:26.043Z,25.10
2018-12-05T10:23:28.095Z,20.97
2018-12-05T10:25:30.039Z,12.90
2018-12-05T10:27:32.005Z,19.87
2018-12-05T10:29:33.958Z,18.80
2018-12-05T10:31:35.911Z,21.90
2018-12-05T10:33:37.868Z,16.60
2018-12-05T10:35:39.835Z,28.03
2018-12-05T10:37:41.809Z,20.17
2018-12-05T10:39:43.738Z,24.47
2018-12-05T10:41:45.723Z,21.63
2018-12-05T10:43:47.676Z,19.97
2018-12-05T10:45:49.731Z,15.40
2018-12-05T10:47:51.708Z,23.00
2018-12-05T10:49:53.655Z,19.67
2018-12-05T10:51:55.602Z,14.03
2018-12-05T10:53:57.563Z,21.77
2018-12-05T10:55:59.626Z,22.93
2018-12-05T10:58:01.579Z,14.93
2018-12-05T11:00:05.007Z,18.03
2018-12-05T11:02:12.846Z,13.23
2018-12-05T11:04:22.430Z,15.43
2018-12-05T11:07:32.534Z,23.10
2018-12-05T11:09:40.355Z,17.10
2018-12-05T11:11:48.163Z,15.00
2018-12-05T11:13:55.935Z,19.03
2018-12-05T11:16:03.719Z,19.03
2018-12-05T11:18:11.490Z,22.97
2018-12-05T11:20:19.218Z,20.80
2018-12-05T11:22:27.003Z,23.40
2018-12-05T11:24:32.211Z,25.83
2018-12-05T11:26:35.283Z,30.63
2018-12-05T11:28:37.234Z,25.10
2018-12-05T11:30:39.240Z,22.33
2018-12-05T11:32:41.188Z,17.70
2018-12-05T11:34:43.139Z,22.83
2018-12-05T11:36:45.091Z,19.53
2018-12-05T11:38:47.039Z,28.47
2018-12-05T11:40:49.043Z,14.90
2018-12-05T11:42:51.003Z,18.33
2018-12-05T11:44:52.966Z,18.43
2018-12-05T11:46:54.914Z,19.23
2018-12-05T11:48:56.858Z,17.00
2018-12-05T11:50:58.907Z,15.13
2018-12-05T11:53:00.859Z,17.77
2018-12-05T11:55:03.007Z,17.43
2018-12-05T11:57:04.966Z,20.47
2018-12-05T11:59:07.205Z,18.80
2018-12-05T12:01:09.267Z,14.07
2018-12-05T12:03:11.218Z,17.30
2018-12-05T12:05:13.150Z,16.03
2018-12-05T12:07:15.155Z,14.20
2018-12-05T12:09:17.106Z,11.63
2018-12-05T12:11:19.923Z,17.50
2018-12-05T12:13:21.912Z,16.30
2018-12-05T12:15:23.889Z,18.80
2018-12-05T12:17:25.874Z,21.90
2018-12-05T12:19:27.828Z,22.70
2018-12-05T12:21:29.788Z,15.00
2018-12-05T12:23:31.747Z,11.60
2018-12-05T12:25:33.696Z,12.83
2018-12-05T12:27:35.649Z,23.20
2018-12-05T12:29:37.623Z,13.57
2018-12-05T12:31:39.792Z,20.27
2018-12-05T12:33:41.848Z,12.50
2018-12-05T12:35:43.808Z,22.57
2018-12-05T12:37:45.868Z,18.13
2018-12-05T12:39:47.821Z,15.60
2018-12-05T12:41:49.773Z,23.90
2018-12-05T12:43:51.831Z,18.90
2018-12-05T12:45:53.795Z,22.17
2018-12-05T12:47:55.833Z,21.27
2018-12-05T12:49:58.027Z,16.40
2018-12-05T12:51:59.977Z,19.20
2018-12-05T12:54:01.931Z,17.77
2018-12-05T12:56:03.886Z,20.47
2018-12-05T12:58:05.835Z,20.27
2018-12-05T13:00:08.768Z,23.47
2018-12-05T13:02:10.724Z,18.50
2018-12-05T13:04:12.673Z,18.50
2018-12-05T13:06:14.679Z,14.03
2018-12-05T13:08:16.623Z,16.30
2018-12-05T13:10:18.579Z,25.17
2018-12-05T13:12:28.407Z,19.40
2018-12-05T13:14:30.348Z,15.70
2018-12-05T13:16:32.324Z,12.03
2018-12-05T13:18:34.379Z,28.57
2018-12-05T13:20:36.344Z,19.80
2018-12-05T13:22:38.298Z,21.10
2018-12-05T13:24:40.247Z,20.00
2018-12-05T13:26:42.204Z,16.43
2018-12-05T13:28:44.157Z,22.03
2018-12-05T13:30:46.111Z,18.73
2018-12-05T13:32:48.058Z,24.67
2018-12-05T13:34:50.010Z,13.07
2018-12-05T13:36:51.976Z,14.53
2018-12-05T13:38:53.934Z,23.70
2018-12-05T13:40:55.880Z,24.97
2018-12-05T13:42:57.842Z,16.63
2018-12-05T13:44:59.802Z,21.40
2018-12-05T13:47:01.986Z,25.33
2018-12-05T13:49:03.935Z,22.07
2018-12-05T13:51:05.911Z,19.50
2018-12-05T13:53:07.947Z,15.60
2018-12-05T13:55:09.903Z,19.97
2018-12-05T13:57:11.862Z,13.50
2018-12-05T13:59:13.815Z,12.67
2018-12-05T14:01:15.775Z,28.60
2018-12-05T14:03:17.768Z,17.27
2018-12-05T14:05:19.855Z,16.10
2018-12-05T14:07:21.813Z,25.83
2018-12-05T14:09:23.872Z,24.03
2018-12-05T14:11:25.831Z,10.20
2018-12-05T14:13:27.847Z,13.43
2018-12-05T14:15:29.799Z,20.57
2018-12-05T14:17:31.762Z,15.70
2018-12-05T14:19:33.723Z,9.73
2018-12-05T14:21:35.686Z,9.13
2018-12-05T14:23:37.753Z,18.93
2018-12-05T14:25:39.806Z,20.27
2018-12-05T14:27:41.771Z,19.20
2018-12-05T14:29:43.725Z,21.73
2018-12-05T14:31:45.683Z,27.80
2018-12-05T14:33:47.631Z,16.50
2018-12-05T14:35:49.596Z,13.60
2018-12-05T14:37:51.652Z,20.17
2018-12-05T14:39:53.694Z,16.60
2018-12-05T14:41:55.651Z,26.73
2018-12-05T14:44:04.303Z,16.73
2018-12-05T14:46:07.406Z,24.07
2018-12-05T14:48:09.714Z,21.13
2018-12-05T14:50:11.668Z,15.63
2018-12-05T14:52:13.619Z,15.53
2018-12-05T14:54:15.563Z,15.73
2018-12-05T14:56:17.515Z,12.87
2018-12-05T14:58:19.478Z,19.70
2018-12-05T15:00:21.431Z,16.00
2018-12-05T15:02:23.394Z,21.70
2018-12-05T15:04:25.357Z,20.63
2018-12-05T15:06:27.294Z,19.47
2018-12-05T15:08:29.251Z,19.73
2018-12-05T15:10:31.205Z,11.37
2018-12-05T15:12:33.164Z,14.73
2018-12-05T15:14:35.117Z,21.30
2018-12-05T15:16:37.075Z,16.57
2018-12-05T15:18:39.075Z,13.53
2018-12-05T15:20:41.032Z,13.97
2018-12-05T15:22:42.999Z,16.37
2018-12-05T15:24:45.071Z,22.90
2018-12-05T15:26:47.015Z,16.37
2018-12-05T15:28:48.981Z,10.20
2018-12-05T15:30:51.031Z,24.83
2018-12-05T15:32:53.007Z,13.60
2018-12-05T15:34:54.955Z,17.37
2018-12-05T15:36:56.910Z,14.67
2018-12-05T15:38:58.867Z,13.57
2018-12-05T15:41:00.814Z,11.63
2018-12-05T15:43:02.758Z,15.27
2018-12-05T15:45:05.703Z,23.00
2018-12-05T15:47:07.659Z,11.73
2018-12-05T15:49:09.623Z,16.23
2018-12-05T15:51:11.587Z,30.80
2018-12-05T15:53:13.546Z,13.97
2018-12-05T15:55:15.483Z,19.53
2018-12-05T15:57:17.431Z,12.27
2018-12-05T15:59:19.384Z,10.57
2018-12-05T16:01:21.331Z,13.77
2018-12-05T16:03:23.291Z,13.63
2018-12-05T16:05:25.359Z,10.97
2018-12-05T16:07:27.314Z,13.17
2018-12-05T16:09:29.259Z,12.03
2018-12-05T16:11:31.214Z,10.33
2018-12-05T16:13:33.172Z,26.27
2018-12-05T16:15:35.236Z,11.73
2018-12-05T16:17:37.204Z,12.50
2018-12-05T16:19:39.152Z,16.27
2018-12-05T16:21:41.144Z,13.07
2018-12-05T16:23:43.135Z,14.10
2018-12-05T16:25:45.125Z,15.83
2018-12-05T16:27:47.140Z,7.80
2018-12-05T16:29:49.126Z,11.03
2018-12-05T16:31:51.126Z,8.00
2018-12-05T16:33:53.083Z,8.13
2018-12-05T16:35:55.036Z,14.50
2018-12-05T16:37:56.991Z,9.57
2018-12-05T16:39:58.943Z,20.23
2018-12-05T16:42:00.900Z,16.23
2018-12-05T16:44:02.855Z,11.20
2018-12-05T16:46:04.806Z,16.47
2018-12-05T16:48:06.770Z,12.10
2018-12-05T16:50:08.733Z,12.83
2018-12-05T16:52:10.691Z,11.00
2018-12-05T16:54:13.163Z,13.90
2018-12-05T16:56:15.119Z,13.03
2018-12-05T16:58:17.080Z,9.97
2018-12-05T17:00:19.134Z,12.27
2018-12-05T17:02:21.183Z,13.40
2018-12-05T17:04:23.131Z,10.43
2018-12-05T17:06:25.086Z,15.73
2018-12-05T17:08:27.047Z,20.63
2018-12-05T17:10:28.999Z,9.17
2018-12-05T17:12:30.954Z,13.40
2018-12-05T17:14:32.911Z,17.77
2018-12-05T17:16:34.870Z,14.20
2018-12-05T17:18:36.833Z,8.70
2018-12-05T17:20:38.776Z,9.67
2018-12-05T17:22:40.727Z,11.20
2018-12-05T17:24:42.679Z,18.17
2018-12-05T17:26:44.635Z,15.13
2018-12-05T17:28:46.600Z,9.77
2018-12-05T17:30:48.566Z,6.00
2018-12-05T17:32:50.651Z,18.73
2018-12-05T17:34:52.607Z,20.33
2018-12-05T17:36:54.563Z,8.93
2018-12-05T17:38:56.519Z,8.73
2018-12-05T17:40:58.462Z,17.93
2018-12-05T17:43:00.398Z,11.53
2018-12-05T17:45:02.338Z,15.27
2018-12-05T17:47:04.296Z,15.27
2018-12-05T17:49:06.387Z,19.67
2018-12-05T17:51:08.339Z,18.17
2018-12-05T17:53:10.284Z,7.77
2018-12-05T17:55:12.303Z,15.63
2018-12-05T17:57:14.255Z,10.53
2018-12-05T17:59:16.224Z,16.00
2018-12-05T18:01:18.287Z,12.73
2018-12-05T18:03:20.243Z,13.30
2018-12-05T18:05:22.207Z,12.80
2018-12-05T18:07:24.160Z,11.03
2018-12-05T18:09:26.124Z,9.87
2018-12-05T18:11:28.075Z,16.80
2018-12-05T18:13:30.023Z,10.33
2018-12-05T18:15:32.007Z,14.13
2018-12-05T18:17:33.967Z,18.73
2018-12-05T18:19:35.944Z,17.83
2018-12-05T18:21:37.895Z,16.87
2018-12-05T18:23:39.847Z,17.97
2018-12-05T18:25:41.807Z,9.53
2018-12-05T18:27:43.749Z,15.50
2018-12-05T18:29:45.711Z,10.30
2018-12-05T18:31:47.663Z,12.20
2018-12-05T18:33:49.620Z,10.90
2018-12-05T18:35:51.588Z,13.37
2018-12-05T18:37:53.659Z,14.17
2018-12-05T18:39:55.730Z,12.47
2018-12-05T18:41:57.683Z,18.00
2018-12-05T18:43:59.638Z,24.03
2018-12-05T18:46:01.607Z,10.33
2018-12-05T18:48:03.571Z,12.97
2018-12-05T18:50:06.291Z,10.33
2018-12-05T18:52:08.235Z,12.77
2018-12-05T18:54:10.213Z,13.23
2018-12-05T18:56:12.175Z,12.27
2018-12-05T18:58:14.154Z,13.20
2018-12-05T19:00:16.278Z,18.10
2018-12-05T19:02:18.305Z,9.90
2018-12-05T19:04:20.351Z,16.23
2018-12-05T19:06:22.307Z,27.00
2018-12-05T19:08:24.259Z,14.20
2018-12-05T19:10:26.233Z,14.07
2018-12-05T19:12:28.288Z,11.50
2018-12-05T19:14:36.003Z,12.53
2018-12-05T19:16:37.967Z,14.33
2018-12-05T19:18:39.924Z,9.33
2018-12-05T19:20:41.887Z,20.87
2018-12-05T19:22:43.834Z,9.87
2018-12-05T19:24:45.790Z,20.33
2018-12-05T19:26:47.859Z,14.03
2018-12-05T19:28:49.820Z,13.30
2018-12-05T19:30:51.778Z,13.13
2018-12-05T19:32:53.839Z,8.87
2018-12-05T19:34:55.802Z,12.50
2018-12-05T19:36:57.798Z,18.83
2018-12-05T19:38:59.759Z,11.83
2018-12-05T19:41:01.712Z,37.80
2018-12-05T19:43:03.952Z,22.43
2018-12-05T19:45:06.794Z,15.73
2018-12-05T19:47:08.871Z,7.50
2018-12-05T19:49:10.966Z,16.63
2018-12-05T19:51:12.971Z,12.93
2018-12-05T19:53:14.919Z,12.60
2018-12-05T19:55:16.928Z,12.97
2018-12-05T19:57:18.890Z,11.00
2018-12-05T19:59:20.907Z,16.73
2018-12-05T20:01:22.895Z,18.30
2018-12-05T20:03:24.851Z,13.57
2018-12-05T20:05:26.916Z,14.17
2018-12-05T20:07:28.875Z,14.20
2018-12-05T20:09:30.827Z,12.73
2018-12-05T20:11:32.794Z,11.73
2018-12-05T20:13:35.715Z,16.40
2018-12-05T20:15:37.667Z,6.83
2018-12-05T20:17:39.655Z,28.00
2018-12-05T20:19:41.634Z,24.97
2018-12-05T20:21:43.698Z,13.57
2018-12-05T20:23:45.781Z,15.70
2018-12-05T20:25:47.734Z,15.63
2018-12-05T20:27:49.694Z,14.73
2018-12-05T20:29:51.742Z,19.73
2018-12-05T20:31:53.703Z,12.93
2018-12-05T20:33:55.670Z,16.43
2018-12-05T20:35:57.659Z,10.83
2018-12-05T20:37:59.619Z,15.50
2018-12-05T20:40:03.591Z,9.10
2018-12-05T20:42:05.555Z,13.53
2018-12-05T20:44:07.649Z,18.93
2018-12-05T20:46:09.599Z,15.10
2018-12-05T20:48:11.555Z,14.93
2018-12-05T20:50:13.815Z,22.30
2018-12-05T20:52:15.963Z,16.33
2018-12-05T20:54:17.923Z,16.90
2018-12-05T20:56:19.879Z,8.73
2018-12-05T20:58:21.843Z,11.43
2018-12-05T21:00:23.798Z,17.90
2018-12-05T21:02:25.771Z,13.23
2018-12-05T21:04:27.725Z,12.30
2018-12-05T21:06:29.770Z,12.77
2018-12-05T21:08:31.915Z,18.80
2018-12-05T21:10:33.877Z,19.63
2018-12-05T21:12:36.135Z,17.67
2018-12-05T21:14:38.095Z,10.90
2018-12-05T21:16:40.051Z,14.57
2018-12-05T21:18:42.036Z,16.30
2018-12-05T21:20:44.111Z,19.23
2018-12-05T21:22:47.222Z,10.97
2018-12-05T21:24:49.833Z,14.57
2018-12-05T21:26:51.789Z,12.80
2018-12-05T21:28:53.747Z,17.30
2018-12-05T21:30:55.703Z,14.50
2018-12-05T21:32:57.659Z,15.40
2018-12-05T21:34:59.626Z,17.37
2018-12-05T21:37:01.632Z,14.23
2018-12-05T21:39:06.919Z,13.93
2018-12-05T21:41:08.871Z,13.67
2018-12-05T21:43:10.844Z,16.00
2018-12-05T21:45:12.892Z,13.40
2018-12-05T21:47:14.863Z,13.30
2018-12-05T21:49:16.827Z,20.40
2018-12-05T21:51:18.782Z,13.40
2018-12-05T21:53:20.759Z,20.30
2018-12-05T21:55:22.743Z,14.90
2018-12-05T21:57:24.694Z,19.90
2018-12-05T21:59:26.744Z,19.40
2018-12-05T22:01:28.711Z,21.30
2018-12-05T22:03:30.684Z,14.30
2018-12-05T22:05:32.655Z,15.30
2018-12-05T22:07:34.615Z,20.83
2018-12-05T22:09:36.587Z,14.90
2018-12-05T22:11:38.635Z,25.57
2018-12-05T22:13:40.586Z,20.27
2018-12-05T22:15:42.543Z,16.03
2018-12-05T22:17:44.603Z,22.53
2018-12-05T22:19:46.559Z,23.23
2018-12-05T22:21:48.512Z,14.00
2018-12-05T22:23:50.491Z,20.10
2018-12-05T22:25:52.443Z,17.70
2018-12-05T22:27:54.390Z,20.93
2018-12-05T22:29:56.343Z,19.20
2018-12-05T22:31:58.299Z,24.07
2018-12-05T22:34:00.255Z,16.13
2018-12-05T22:36:02.331Z,18.93
2018-12-05T22:38:04.274Z,24.37
2018-12-05T22:40:07.379Z,24.23
2018-12-05T22:46:56.567Z,16.40
2018-12-05T22:48:58.543Z,19.30
2018-12-05T22:51:00.492Z,18.73
2018-12-05T22:53:02.564Z,22.20
2018-12-05T22:55:04.628Z,15.90
2018-12-05T22:57:12.968Z,19.60
2018-12-05T22:59:15.176Z,19.03
2018-12-05T23:01:17.163Z,14.07
2018-12-05T23:03:19.123Z,18.27
2018-12-05T23:05:21.081Z,13.07
2018-12-05T23:07:23.018Z,16.00
2018-12-05T23:09:24.975Z,17.83
2018-12-05T23:11:26.918Z,22.73
2018-12-05T23:13:28.871Z,19.63
2018-12-05T23:15:30.819Z,20.87
2018-12-05T23:17:32.787Z,13.50
2018-12-05T23:19:34.851Z,14.10
2018-12-05T23:21:36.802Z,20.97
2018-12-05T23:23:38.734Z,22.80
2018-12-05T23:25:40.688Z,21.07
2018-12-05T23:27:42.638Z,24.83
2018-12-05T23:29:44.595Z,14.73
2018-12-05T23:31:46.526Z,22.50
2018-12-05T23:33:48.477Z,18.30
2018-12-05T23:35:50.427Z,22.50
2018-12-05T23:37:52.379Z,18.33
2018-12-05T23:39:54.335Z,22.60
2018-12-05T23:41:56.274Z,14.33
2018-12-05T23:43:58.227Z,25.57
2018-12-05T23:46:00.172Z,21.23
2018-12-05T23:48:02.118Z,20.07
2018-12-05T23:50:04.363Z,20.13
2018-12-05T23:52:06.312Z,24.60
2018-12-05T23:54:08.268Z,26.47
2018-12-05T23:56:10.225Z,19.40
2018-12-05T23:58:12.178Z,13.40
